Arquivo da Categoria: ‘Fotos’ Categoria

Foto enviada por Rafael Sobreiro mostrando as condições do Afonso Pena no sábado pela manhã. Um forte nevoeiro estava sobre o aeródromo. METARes da manhã de ontem: SBCT 200900Z 00000KT 1200 R15/P2000 R33/0400 BCFG BKN008 SBCT 200925Z 12002KT 3000 BR SCT010 18/17 Q1021= SBCT 201000Z 10001KT 2600 BR SCT002 SCT010...
Leia Mais

Seguem as fotos do Absa Cargo sobre o setor W do Afonso Pena. A aeronave estava na final para pouso e, devido outra aeronave alinhada para decolagem, foi instruída a arremeter e iniciar um 360º pela direita. Fotos por Andreas Fast: De outro ângulo, por Everton Machado:
Leia Mais

Conforme informado pelo site PalegreAoVivo, o B727 da Rio está fazendo o vôo 9649 para Curitiba. Já está com o APP CT e pousa nos próximos 10 minutos. Edit: registro da aeronave pousando:
Leia Mais
Leia Mais
Leia Mais
Leia Mais